Time;durP1;ratioP1;P1;durP2;ratioP2;P2;SDS_P1;SDS_P2;PMS_P1;PMS_P2;Temp;Humidity;BMP_temperature;BMP_pressure;BME280_temperature;BME280_humidity;BME280_pressure;Samples;Min_cycle;Max_cycle;Signal;HPM_P1;HPM_P2
2021/09/20 00:01:33;;;;;;;8.87;8.07;;;11.90;68.40;;;10.79;74.12;97985.66;4916436;29;20952;-62
2021/09/20 00:04:00;;;;;;;10.90;9.90;;;11.90;67.60;;;10.72;74.37;97991.94;4928212;29;20922;-62
2021/09/20 00:06:27;;;;;;;9.47;8.67;;;11.90;67.60;;;10.65;73.65;97988.44;4930639;29;20648;-62
2021/09/20 00:08:54;;;;;;;9.90;8.93;;;11.90;67.20;;;10.74;73.36;97989.84;4928093;29;20451;-62
2021/09/20 00:11:21;;;;;;;9.90;9.00;;;11.90;66.90;;;10.70;73.61;97985.94;4931544;29;20956;-63
2021/09/20 00:13:49;;;;;;;10.70;9.70;;;11.80;67.10;;;10.61;74.05;97981.81;4927974;28;20473;-63
2021/09/20 00:16:16;;;;;;;9.73;8.93;;;11.80;67.10;;;10.60;74.30;97986.38;4930128;29;20459;-62
2021/09/20 00:18:43;;;;;;;10.50;9.50;;;11.80;67.00;;;10.63;74.08;97990.53;4930965;29;20484;-62
2021/09/20 00:21:11;;;;;;;10.80;9.80;;;11.80;67.00;;;10.51;74.28;97978.75;4926848;29;20957;-62
2021/09/20 00:23:38;;;;;;;10.13;8.77;;;11.70;67.00;;;10.60;74.01;97996.38;4929804;29;20470;-61
2021/09/20 00:26:04;;;;;;;10.20;9.27;;;11.80;67.10;;;10.53;74.66;97998.25;4926482;29;20562;-62
2021/09/20 00:28:32;;;;;;;10.50;9.60;;;11.70;67.10;;;10.51;74.50;97998.50;4924795;29;20865;-63
2021/09/20 00:31:00;;;;;;;10.60;9.70;;;11.70;66.90;;;10.53;74.67;97998.25;4910999;29;20619;-62
2021/09/20 00:33:27;;;;;;;13.10;9.20;;;11.70;66.90;;;10.49;73.52;97995.19;4929908;29;20471;-62
2021/09/20 00:35:54;;;;;;;9.50;8.70;;;11.70;66.70;;;10.48;74.04;98005.16;4928498;29;20486;-62
2021/09/20 00:38:21;;;;;;;10.53;9.20;;;11.70;66.30;;;10.55;74.20;97997.00;4932140;29;21051;-62
2021/09/20 00:40:48;;;;;;;9.27;8.47;;;11.70;66.70;;;10.53;75.07;98003.66;4929631;29;20463;-62
2021/09/20 00:43:15;;;;;;;10.13;9.20;;;11.70;66.60;;;10.57;74.40;98010.31;4926988;29;20479;-62
2021/09/20 00:45:42;;;;;;;10.10;9.10;;;11.70;66.70;;;10.57;73.54;98004.91;4924872;29;21021;-62
2021/09/20 00:48:11;;;;;;;13.33;10.03;;;11.70;66.00;;;10.55;72.98;98007.00;4927947;29;20956;-62
2021/09/20 00:50:38;;;;;;;10.43;9.43;;;11.70;65.80;;;10.57;73.50;97991.41;4927197;29;20484;-62
2021/09/20 00:53:05;;;;;;;11.87;9.50;;;11.70;66.10;;;10.51;73.72;98003.91;4929125;29;20940;-62
2021/09/20 00:55:32;;;;;;;9.90;8.90;;;11.70;65.70;;;10.57;73.25;98002.22;4927954;29;20569;-62
2021/09/20 00:58:00;;;;;;;10.43;9.53;;;11.70;66.20;;;10.48;73.44;98005.16;4929089;29;20510;-62
2021/09/20 01:00:27;;;;;;;9.93;9.03;;;11.70;65.90;;;10.47;73.50;97997.28;4924092;29;20824;-62
2021/09/20 01:02:54;;;;;;;10.10;9.20;;;11.70;66.00;;;10.42;73.66;97997.91;4921872;29;20553;-62
2021/09/20 01:05:22;;;;;;;11.10;10.10;;;11.60;65.90;;;10.49;73.72;97997.88;4928210;29;20590;-62
2021/09/20 01:07:49;;;;;;;11.70;9.03;;;11.70;65.90;;;10.43;74.30;98004.13;4929043;29;20459;-62
2021/09/20 01:10:16;;;;;;;10.57;9.67;;;11.60;66.00;;;10.61;74.50;98004.28;4930474;29;20938;-62
2021/09/20 01:12:43;;;;;;;10.10;9.20;;;11.70;67.30;;;10.65;74.62;98004.66;4925094;29;20555;-62
2021/09/20 01:15:11;;;;;;;10.33;9.30;;;11.80;67.40;;;10.74;74.81;97997.97;4930400;29;20490;-62
2021/09/20 01:17:38;;;;;;;9.87;9.07;;;11.80;68.00;;;10.64;74.67;98003.00;4928656;29;20559;-62
2021/09/20 01:20:08;;;;;;;8.97;8.17;;;11.80;66.30;;;10.44;73.98;98009.34;4926970;29;20562;-62
2021/09/20 01:22:38;;;;;;;10.73;9.63;;;11.70;65.50;;;10.42;73.50;98011.44;4924170;29;20507;-63
2021/09/20 01:25:10;;;;;;;10.10;9.20;;;11.60;65.70;;;10.52;73.62;98015.53;4920043;29;20574;-62
2021/09/20 01:27:37;;;;;;;11.60;9.67;;;11.70;65.60;;;10.42;73.83;98010.59;4927147;29;20656;-62
2021/09/20 01:30:05;;;;;;;10.63;9.63;;;11.60;65.70;;;10.35;74.44;98010.56;4928732;29;20459;-62
2021/09/20 01:32:32;;;;;;;10.73;9.73;;;11.60;66.00;;;10.33;73.84;98013.50;4929847;29;20471;-62
2021/09/20 01:34:59;;;;;;;11.00;10.10;;;11.50;65.80;;;10.33;75.25;98007.28;4926171;29;20479;-63
2021/09/20 01:37:26;;;;;;;10.10;9.10;;;11.50;66.20;;;10.31;74.29;98009.34;4929291;29;20467;-63
2021/09/20 01:39:52;;;;;;;9.10;8.30;;;11.50;66.20;;;10.37;73.61;98013.06;4928357;29;20489;-63
2021/09/20 01:42:21;;;;;;;11.97;10.87;;;11.50;65.90;;;10.48;73.90;98015.16;4925587;29;20982;-62
2021/09/20 01:44:48;;;;;;;11.00;10.00;;;11.50;65.80;;;10.37;74.43;98019.28;4922711;29;20506;-62
2021/09/20 01:47:14;;;;;;;12.30;9.93;;;11.60;66.00;;;10.38;75.37;98018.25;4923899;29;20637;-63
2021/09/20 01:49:41;;;;;;;12.17;11.07;;;11.60;66.50;;;10.43;74.98;98007.69;4924781;29;20470;-62
2021/09/20 01:52:08;;;;;;;11.77;10.57;;;11.60;66.60;;;10.40;74.72;98005.38;4928481;29;20611;-63
2021/09/20 01:54:36;;;;;;;10.80;9.80;;;11.60;66.30;;;10.36;73.94;98001.44;4924449;29;20594;-62
2021/09/20 01:57:03;;;;;;;10.30;9.40;;;11.60;66.00;;;10.32;75.40;98008.31;4926712;29;20550;-63
2021/09/20 01:59:31;;;;;;;11.97;10.77;;;11.50;66.30;;;10.30;75.29;98003.09;4925153;29;20482;-62
2021/09/20 02:01:58;;;;;;;9.90;9.10;;;11.50;66.10;;;10.35;74.33;98010.56;4928826;29;20511;-63
2021/09/20 02:04:25;;;;;;;11.00;10.00;;;11.50;66.10;;;10.38;73.98;98007.44;4928824;28;20627;-63
2021/09/20 02:06:51;;;;;;;10.13;9.23;;;11.60;66.10;;;10.29;74.40;98000.66;4927408;29;20485;-62
2021/09/20 02:09:18;;;;;;;10.67;8.93;;;11.50;66.00;;;10.27;74.59;98002.72;4910046;29;20459;-62
2021/09/20 02:11:46;;;;;;;11.43;10.20;;;11.50;66.00;;;10.26;74.96;98009.19;4927264;29;20517;-62
2021/09/20 02:14:13;;;;;;;10.83;9.83;;;11.50;66.00;;;10.29;74.77;98006.03;4920730;29;20495;-62
2021/09/20 02:16:41;;;;;;;10.90;9.83;;;11.50;65.90;;;10.24;74.47;98009.38;4927037;29;20462;-62
2021/09/20 02:19:09;;;;;;;10.93;9.90;;;11.50;65.90;;;10.22;74.67;98000.66;4925631;29;20483;-62
2021/09/20 02:21:36;;;;;;;12.20;11.10;;;11.40;65.90;;;10.26;74.21;98001.06;4923224;29;20534;-62
2021/09/20 02:24:03;;;;;;;10.13;9.23;;;11.40;65.80;;;10.24;74.57;98008.56;4908937;29;20482;-62
2021/09/20 02:26:30;;;;;;;12.33;11.27;;;11.40;66.00;;;10.29;74.84;98008.75;4926523;29;20468;-61
2021/09/20 02:28:57;;;;;;;10.70;9.70;;;11.50;66.30;;;10.30;75.41;97996.91;4926991;29;20466;-61
2021/09/20 02:31:24;;;;;;;10.67;9.70;;;11.50;66.40;;;10.29;74.44;98000.66;4922480;29;20459;-62
2021/09/20 02:33:52;;;;;;;11.10;10.00;;;11.50;65.90;;;10.25;74.13;98010.22;4925157;29;20455;-62
2021/09/20 02:36:19;;;;;;;11.47;10.33;;;11.40;65.50;;;10.23;74.97;98009.59;4924043;29;20486;-62
2021/09/20 02:38:46;;;;;;;11.20;10.10;;;11.40;65.70;;;10.27;74.54;98005.44;4925612;29;20860;-62
2021/09/20 02:41:13;;;;;;;11.60;10.50;;;11.40;65.70;;;10.18;73.90;98010.25;4922418;29;20463;-62
2021/09/20 02:43:40;;;;;;;10.97;9.83;;;11.40;65.40;;;10.19;74.51;98012.72;4925771;29;22411;-64
2021/09/20 02:46:07;;;;;;;10.90;9.90;;;11.40;65.70;;;10.27;73.84;98013.53;4920542;29;21014;-62
2021/09/20 02:48:34;;;;;;;10.63;9.33;;;11.40;65.40;;;10.18;74.53;98008.34;4926415;29;20454;-62
2021/09/20 02:51:02;;;;;;;11.63;10.53;;;11.40;65.60;;;10.23;74.87;98013.13;4924419;29;20469;-62
2021/09/20 02:53:31;;;;;;;11.23;10.13;;;11.40;65.80;;;10.17;73.98;98012.09;4925297;29;20546;-62
2021/09/20 02:55:58;;;;;;;11.73;10.73;;;11.40;65.50;;;10.26;74.37;98012.69;4923955;29;20545;-62
2021/09/20 02:58:26;;;;;;;12.60;11.33;;;11.40;66.00;;;10.22;74.51;98011.47;4925369;29;20574;-62
2021/09/20 03:00:53;;;;;;;10.43;9.63;;;11.40;65.60;;;10.27;73.87;98018.94;4930540;29;20461;-63
2021/09/20 03:03:20;;;;;;;11.03;10.03;;;11.40;65.30;;;10.25;74.07;98021.03;4922409;29;20462;-62
2021/09/20 03:05:47;;;;;;;11.90;10.53;;;11.40;65.40;;;10.19;73.88;98018.13;4927538;29;20495;-63
2021/09/20 03:08:15;;;;;;;11.00;9.90;;;11.40;65.50;;;10.19;74.26;98020.00;4921506;29;20468;-62
2021/09/20 03:10:42;;;;;;;11.00;10.00;;;11.40;65.50;;;10.29;75.62;98009.56;4924484;29;20561;-62
2021/09/20 03:13:09;;;;;;;11.47;10.27;;;11.40;66.30;;;10.34;74.84;98014.31;4926350;29;20459;-62
2021/09/20 03:15:36;;;;;;;10.70;9.70;;;11.50;66.60;;;10.42;75.39;98011.44;4925062;29;20569;-63
2021/09/20 03:18:03;;;;;;;11.70;10.63;;;11.60;66.90;;;10.60;75.21;98018.00;4930106;29;20471;-63
2021/09/20 03:20:30;;;;;;;13.27;10.30;;;11.70;67.50;;;10.54;76.10;98014.28;4923759;29;20569;-63
2021/09/20 03:22:57;;;;;;;11.00;10.00;;;11.70;67.30;;;10.58;76.03;98010.09;4920412;29;20550;-62
2021/09/20 03:25:25;;;;;;;11.67;10.30;;;11.70;67.60;;;10.58;75.21;98009.28;4922746;29;20497;-62
2021/09/20 03:27:52;;;;;;;11.87;10.70;;;11.70;67.00;;;10.62;75.92;98013.19;4928994;29;20934;-64
2021/09/20 03:30:19;;;;;;;11.40;10.30;;;11.70;67.70;;;10.58;74.77;98009.28;4926665;29;20463;-63
2021/09/20 03:32:47;;;;;;;11.00;10.00;;;11.80;66.50;;;10.62;73.68;98010.50;4923471;29;20502;-62
2021/09/20 03:35:16;;;;;;;11.37;10.27;;;11.80;66.40;;;10.59;72.95;98013.63;4932030;29;20482;-62
2021/09/20 03:37:43;;;;;;;10.60;9.60;;;11.70;65.80;;;10.46;72.88;98012.66;4933473;29;20477;-62
2021/09/20 03:40:12;;;;;;;11.73;10.70;;;11.70;64.90;;;10.35;71.92;98018.69;4927377;29;20482;-62
2021/09/20 03:42:42;;;;;;;10.70;9.70;;;11.60;64.00;;;10.21;72.57;98026.81;4928680;29;20477;-62
2021/09/20 03:45:10;;;;;;;10.40;9.40;;;11.50;64.10;;;10.34;72.12;98019.72;4926842;29;20479;-62
2021/09/20 03:47:38;;;;;;;10.53;9.53;;;11.50;64.20;;;10.29;72.18;98036.56;4925265;29;20475;-62
2021/09/20 03:50:06;;;;;;;10.73;9.80;;;11.40;64.10;;;10.44;72.04;98030.94;4915030;29;20443;-62
2021/09/20 03:52:33;;;;;;;11.20;10.10;;;11.50;63.90;;;10.24;73.13;98035.56;4930788;29;20446;-62
2021/09/20 03:55:01;;;;;;;11.87;10.50;;;11.50;64.20;;;10.17;73.25;98030.19;4926362;29;20552;-62
2021/09/20 03:57:28;;;;;;;11.37;10.10;;;11.40;64.50;;;10.26;72.61;98038.88;4926295;29;20559;-62
2021/09/20 03:59:56;;;;;;;11.73;10.63;;;11.40;64.30;;;10.12;73.49;98032.69;4929608;29;20616;-62
2021/09/20 04:02:23;;;;;;;10.77;9.77;;;11.30;64.60;;;10.10;73.52;98038.31;4928889;29;20542;-63
2021/09/20 04:04:50;;;;;;;12.47;11.27;;;11.30;64.70;;;10.03;73.28;98045.56;4932301;29;21011;-63
2021/09/20 04:07:17;;;;;;;12.40;11.10;;;11.20;64.40;;;10.03;73.17;98050.97;4927956;29;20558;-63
2021/09/20 04:09:44;;;;;;;12.40;11.30;;;11.20;64.40;;;10.40;71.84;98034.25;4927955;29;20482;-62
2021/09/20 04:12:10;;;;;;;11.73;10.63;;;11.40;64.60;;;10.21;74.23;98039.50;4926690;29;20518;-62
2021/09/20 04:14:38;;;;;;;11.30;10.20;;;11.30;65.00;;;10.14;73.77;98041.38;4919535;29;20991;-62
2021/09/20 04:17:08;;;;;;;13.97;11.77;;;11.30;65.10;;;9.98;75.20;98042.69;4929206;29;20478;-63
2021/09/20 04:19:36;;;;;;;11.67;10.53;;;11.20;65.40;;;10.00;75.30;98040.59;4926535;29;20522;-63
2021/09/20 04:22:04;;;;;;;11.37;10.27;;;11.20;65.70;;;10.05;75.03;98051.59;4928022;29;20463;-68
2021/09/20 04:24:33;;;;;;;12.30;11.10;;;11.20;65.60;;;10.05;74.72;98054.28;4931828;29;20520;-67
2021/09/20 04:27:00;;;;;;;12.27;11.07;;;11.20;65.50;;;10.26;74.78;98046.97;4931492;29;20583;-68
2021/09/20 04:29:27;;;;;;;11.40;10.30;;;11.30;66.00;;;10.28;74.85;98066.50;4933982;29;20497;-68
2021/09/20 04:31:54;;;;;;;12.47;11.20;;;11.40;65.90;;;10.27;74.54;98060.25;4929207;29;20495;-68
2021/09/20 04:34:23;;;;;;;11.60;10.50;;;11.40;65.50;;;10.02;75.75;98060.13;4927140;29;20482;-68
2021/09/20 04:36:50;;;;;;;11.20;10.10;;;11.30;65.90;;;9.88;75.97;98065.53;4930840;29;20467;-68
2021/09/20 04:39:17;;;;;;;11.67;10.60;;;11.10;66.10;;;10.02;75.92;98060.13;4923495;29;20566;-67
2021/09/20 04:41:44;;;;;;;11.23;10.13;;;11.20;66.30;;;9.90;75.49;98074.25;4931167;29;20469;-67
2021/09/20 04:44:11;;;;;;;11.33;10.33;;;11.10;65.70;;;9.95;75.59;98064.72;4933535;28;20570;-68
2021/09/20 04:46:38;;;;;;;13.93;11.10;;;11.10;66.00;;;9.88;74.43;98065.53;4925357;29;20473;-68
2021/09/20 04:49:05;;;;;;;10.97;9.80;;;11.10;65.00;;;9.92;73.97;98072.16;4930471;29;20495;-68
2021/09/20 04:51:34;;;;;;;11.03;9.93;;;11.10;64.80;;;9.98;73.63;98077.78;4913268;29;20500;-68
2021/09/20 04:54:01;;;;;;;11.73;10.60;;;11.10;64.80;;;10.18;72.66;98067.75;4929074;29;20923;-62
2021/09/20 04:56:28;;;;;;;11.70;10.50;;;11.20;64.90;;;9.91;74.81;98078.59;4929821;29;20471;-66
2021/09/20 04:58:55;;;;;;;10.63;9.70;;;11.10;65.00;;;9.84;74.73;98085.88;4931513;29;20482;-62
2021/09/20 05:01:21;;;;;;;11.43;9.93;;;11.10;65.40;;;9.92;75.11;98091.06;4926080;29;20466;-63
2021/09/20 05:03:48;;;;;;;11.83;10.40;;;11.10;65.50;;;10.02;74.56;98095.22;4931970;29;20459;-67
2021/09/20 05:06:15;;;;;;;12.07;10.87;;;11.10;65.20;;;10.16;73.76;98088.75;4928415;29;21209;-62
2021/09/20 05:08:44;;;;;;;10.80;9.80;;;11.20;65.10;;;10.21;73.54;98088.13;4925956;29;20478;-62
2021/09/20 05:11:11;;;;;;;11.27;10.20;;;11.20;64.90;;;10.15;73.56;98080.84;4926605;29;20566;-62
2021/09/20 05:13:38;;;;;;;10.93;9.93;;;11.30;65.00;;;10.20;73.71;98100.78;4921303;29;20591;-62
2021/09/20 05:16:05;;;;;;;10.67;9.57;;;11.40;64.80;;;9.94;75.72;98107.06;4927345;29;20450;-62
2021/09/20 05:18:32;;;;;;;12.17;10.97;;;11.20;65.20;;;10.09;75.17;98108.69;4931939;29;20973;-62
2021/09/20 05:20:59;;;;;;;11.13;10.03;;;11.20;65.40;;;9.99;75.31;98103.72;4928820;29;20559;-62
2021/09/20 05:23:26;;;;;;;11.70;10.60;;;11.20;65.60;;;9.95;74.98;98107.91;4930202;29;20471;-62
2021/09/20 05:25:54;;;;;;;12.93;11.73;;;11.20;65.90;;;10.00;75.90;98110.78;4928036;29;20538;-62
2021/09/20 05:28:21;;;;;;;10.70;9.80;;;11.20;66.00;;;10.19;74.11;98104.50;4928661;29;20494;-62
2021/09/20 05:30:48;;;;;;;10.63;9.60;;;11.20;65.70;;;10.07;74.83;98112.44;4930221;29;20553;-62
2021/09/20 05:33:16;;;;;;;11.20;10.10;;;11.30;65.80;;;10.02;75.09;98108.69;4913466;29;20463;-62
2021/09/20 05:35:44;;;;;;;18.47;11.40;;;11.20;66.00;;;10.16;74.63;98107.66;4933493;29;20486;-61
2021/09/20 05:38:12;;;;;;;12.43;9.50;;;11.20;65.90;;;10.06;74.82;98109.94;4927212;29;20558;-60
2021/09/20 05:40:39;;;;;;;10.50;9.50;;;11.30;65.70;;;10.16;74.44;98113.03;4932040;29;20514;-61
2021/09/20 05:43:07;;;;;;;11.73;10.73;;;11.30;65.40;;;10.07;74.77;98112.44;4928123;29;21242;-61
2021/09/20 05:45:34;;;;;;;11.30;10.27;;;11.30;65.50;;;10.05;74.84;98116.38;4930144;29;20515;-61
2021/09/20 05:48:01;;;;;;;10.97;9.97;;;11.30;65.20;;;10.10;74.28;98111.19;4927092;29;20467;-62
2021/09/20 05:50:29;;;;;;;9.70;8.87;;;11.20;65.50;;;10.30;72.17;98110.31;4926535;29;20526;-62
2021/09/20 05:52:56;;;;;;;9.80;8.87;;;11.40;64.20;;;10.52;71.47;98127.13;4928201;29;20582;-64
2021/09/20 05:55:24;;;;;;;10.70;9.03;;;11.50;64.00;;;10.55;71.46;98126.69;4924705;29;20486;-63
2021/09/20 05:57:51;;;;;;;10.93;8.73;;;11.60;63.80;;;10.43;71.30;98128.38;4928638;29;21039;-64
2021/09/20 06:00:20;;;;;;;10.23;9.17;;;11.60;63.80;;;10.37;72.31;98121.09;4922320;29;20557;-64
2021/09/20 06:02:48;;;;;;;10.40;9.40;;;11.50;64.20;;;10.33;72.69;98129.63;4926201;29;20481;-64
2021/09/20 06:05:15;;;;;;;10.33;9.53;;;11.50;64.00;;;10.47;72.32;98122.34;4929860;29;20853;-66
2021/09/20 06:07:43;;;;;;;9.77;8.93;;;11.50;64.20;;;10.75;68.41;98123.91;4926385;29;20803;-66
2021/09/20 06:10:12;;;;;;;11.37;8.33;;;11.70;62.40;;;10.88;68.02;98109.50;4927035;29;21216;-65
2021/09/20 06:12:39;;;;;;;9.00;7.70;;;11.80;61.80;;;10.85;67.79;98128.06;4928780;29;20470;-65
2021/09/20 06:15:19;;;;;;;9.03;8.03;;;11.90;61.50;;;10.80;67.79;98130.56;4937149;29;20794;-65
2021/09/20 06:17:46;;;;;;;10.87;8.20;;;11.90;61.20;;;10.93;66.78;98127.78;4929572;29;20468;-67
2021/09/20 06:20:14;;;;;;;9.70;8.70;;;12.00;60.90;;;10.87;66.32;98128.66;4927645;29;20475;-70
2021/09/20 06:22:41;;;;;;;8.67;7.97;;;12.00;60.30;;;10.98;66.54;98132.56;4932764;29;20463;-80
2021/09/20 06:25:28;;;;;;;9.40;8.23;;;12.00;60.10;;;10.94;66.67;98148.38;4927840;29;20502;-67
2021/09/20 06:28:15;;;;;;;8.70;7.90;;;12.00;60.20;;;11.09;65.86;98142.72;4929020;29;20454;-67
2021/09/20 06:31:04;;;;;;;11.70;7.97;;;12.10;60.00;;;11.09;65.91;98134.59;4930365;29;20435;-68
2021/09/20 06:33:51;;;;;;;9.07;8.27;;;12.10;60.00;;;11.08;64.92;98142.91;4926635;29;20589;-67
2021/09/20 06:36:39;;;;;;;10.20;8.77;;;12.10;59.40;;;11.02;66.07;98150.84;4926067;29;20444;-68
2021/09/20 06:39:27;;;;;;;9.17;8.37;;;12.10;59.70;;;11.03;65.97;98144.38;4926851;29;20540;-67
2021/09/20 06:42:14;;;;;;;9.80;8.60;;;12.10;59.80;;;11.08;66.14;98141.03;4927586;29;20590;-68
2021/09/20 06:45:01;;;;;;;9.10;8.30;;;12.10;59.70;;;11.09;65.80;98144.56;4929496;28;20823;-67
2021/09/20 06:47:50;;;;;;;11.87;8.70;;;12.10;59.60;;;11.24;65.14;98141.59;4927053;29;20474;-67
2021/09/20 06:50:37;;;;;;;9.03;7.80;;;12.20;59.60;;;11.30;65.60;98155.06;4927988;29;20818;-72
2021/09/20 06:53:24;;;;;;;11.13;8.70;;;12.30;59.70;;;11.20;66.18;98152.00;4919500;29;20431;-67
2021/09/20 06:56:12;;;;;;;9.70;8.73;;;12.20;59.80;;;11.25;65.97;98148.66;4928762;29;20434;-65
2021/09/20 06:58:59;;;;;;;11.60;8.13;;;12.30;59.50;;;11.32;65.38;98161.09;4926295;29;20462;-67
2021/09/20 07:01:46;;;;;;;9.47;8.53;;;12.30;59.40;;;11.32;65.25;98163.81;4926469;29;20466;-68
2021/09/20 07:04:35;;;;;;;8.67;7.87;;;12.30;59.30;;;11.32;65.78;98160.25;4927846;29;20995;-67
2021/09/20 07:07:22;;;;;;;9.17;8.33;;;12.30;59.60;;;11.38;65.53;98163.97;4927820;29;20441;-68
2021/09/20 07:10:12;;;;;;;10.40;8.90;;;12.30;59.40;;;11.42;65.82;98170.59;4930818;29;20811;-71
